Time;durP1;ratioP1;P1;durP2;ratioP2;P2;SDS_P1;SDS_P2;PMS_P1;PMS_P2;Temp;Humidity;BMP_temperature;BMP_pressure;BME280_temperature;BME280_humidity;BME280_pressure;Samples;Min_cycle;Max_cycle;Signal;HPM_P1;HPM_P2
2021/01/24 00:00:12;;;;;;;33.07;29.70;;;2.20;99.90;;;;;;6215312;23;20426;-81
2021/01/24 00:02:42;;;;;;;34.27;30.67;;;2.20;99.90;;;;;;6179366;23;20414;-81
2021/01/24 00:05:10;;;;;;;31.40;27.63;;;2.20;99.90;;;;;;6214914;23;20426;-81
2021/01/24 00:07:37;;;;;;;30.40;27.50;;;2.20;99.90;;;;;;6178944;23;20419;-81
2021/01/24 00:10:05;;;;;;;30.90;27.70;;;2.10;99.90;;;;;;6178651;23;20447;-81
2021/01/24 00:12:32;;;;;;;32.47;29.27;;;2.10;99.90;;;;;;6178849;23;20420;-81
2021/01/24 00:15:00;;;;;;;30.60;27.50;;;2.10;99.90;;;;;;6214956;23;20396;-81
2021/01/24 00:17:28;;;;;;;28.37;25.47;;;2.10;99.90;;;;;;6179860;23;20470;-81
2021/01/24 00:19:56;;;;;;;29.67;26.60;;;2.10;99.90;;;;;;6179863;23;20512;-80
2021/01/24 00:22:23;;;;;;;30.37;27.37;;;2.10;99.90;;;;;;6180533;23;20420;-80
2021/01/24 00:24:50;;;;;;;31.53;27.87;;;2.10;99.90;;;;;;6179692;23;20419;-80
2021/01/24 00:27:17;;;;;;;32.10;28.80;;;2.10;99.90;;;;;;6179275;23;20413;-81
2021/01/24 00:29:45;;;;;;;33.47;30.30;;;2.10;99.90;;;;;;6179505;23;20871;-81
2021/01/24 00:32:12;;;;;;;30.97;28.10;;;2.10;99.90;;;;;;6180628;23;20200;-81
2021/01/24 00:34:40;;;;;;;31.07;27.87;;;2.10;99.90;;;;;;6178302;23;20415;-81
2021/01/24 00:37:08;;;;;;;30.67;27.67;;;2.10;99.90;;;;;;6178427;23;20458;-81
2021/01/24 00:39:35;;;;;;;33.13;29.83;;;2.10;99.90;;;;;;6176526;23;20411;-81
2021/01/24 00:42:03;;;;;;;31.57;28.37;;;2.10;99.90;;;;;;6213784;23;20164;-81
2021/01/24 00:44:30;;;;;;;32.87;28.90;;;2.10;99.90;;;;;;6180270;23;20424;-81
2021/01/24 00:46:57;;;;;;;31.70;28.50;;;2.10;99.90;;;;;;6179975;23;20419;-81
2021/01/24 00:49:25;;;;;;;28.93;25.93;;;2.00;99.90;;;;;;6217159;23;20420;-81
2021/01/24 00:51:53;;;;;;;28.40;25.53;;;2.00;99.90;;;;;;6216315;23;20392;-80
2021/01/24 00:54:22;;;;;;;29.10;26.10;;;1.90;99.90;;;;;;6180037;23;20420;-81
2021/01/24 00:56:49;;;;;;;27.70;24.70;;;1.90;99.90;;;;;;6177998;23;20435;-81
2021/01/24 00:59:16;;;;;;;29.30;26.20;;;1.90;99.90;;;;;;6179253;23;20435;-81
2021/01/24 01:01:44;;;;;;;28.43;25.57;;;1.90;99.90;;;;;;6216904;23;20482;-81
2021/01/24 01:04:16;;;;;;;28.83;25.50;;;1.80;99.90;;;;;;6179840;23;20874;-81
2021/01/24 01:06:47;;;;;;;27.90;25.20;;;1.80;99.90;;;;;;6180853;23;20424;-81
2021/01/24 01:09:42;;;;;;;27.13;24.10;;;1.90;99.90;;;;;;6174003;23;20438;-81
2021/01/24 01:12:10;;;;;;;26.80;23.90;;;1.80;99.90;;;;;;6181196;23;20407;-81
2021/01/24 01:14:37;;;;;;;27.97;25.33;;;1.80;99.90;;;;;;6182236;23;20419;-81
2021/01/24 01:17:04;;;;;;;27.90;24.10;;;1.80;99.90;;;;;;6175770;23;20435;-81
2021/01/24 01:19:32;;;;;;;27.20;24.30;;;1.80;99.90;;;;;;6215073;23;20486;-81
2021/01/24 01:22:00;;;;;;;28.33;25.40;;;1.80;99.90;;;;;;6179506;23;20420;-81
2021/01/24 01:24:27;;;;;;;27.73;24.60;;;1.80;99.90;;;;;;6214984;23;20396;-80
2021/01/24 01:26:55;;;;;;;28.30;23.30;;;1.80;99.90;;;;;;6179440;23;20414;-80
2021/01/24 01:29:22;;;;;;;28.90;24.27;;;1.80;99.90;;;;;;6179151;23;20431;-81
2021/01/24 01:31:50;;;;;;;25.90;21.17;;;1.80;99.90;;;;;;6215433;23;20391;-81
2021/01/24 01:34:17;;;;;;;27.37;24.57;;;1.80;99.90;;;;;;6215717;23;20403;-81
2021/01/24 01:36:44;;;;;;;24.77;22.33;;;1.80;99.90;;;;;;6215772;23;20455;-80
2021/01/24 01:39:11;;;;;;;25.47;23.07;;;1.80;99.90;;;;;;6177925;23;20439;-80
2021/01/24 01:41:39;;;;;;;23.90;21.40;;;1.80;99.90;;;;;;6178406;23;20415;-80
2021/01/24 01:44:07;;;;;;;25.07;22.13;;;1.80;99.90;;;;;;6178721;23;20420;-80
2021/01/24 01:46:34;;;;;;;25.90;23.27;;;1.90;99.90;;;;;;6178822;23;20421;-80
2021/01/24 01:49:02;;;;;;;26.67;23.77;;;1.80;99.90;;;;;;6179232;23;20466;-81
2021/01/24 01:51:30;;;;;;;23.93;21.33;;;1.90;99.90;;;;;;6178828;23;20428;-81
2021/01/24 01:53:59;;;;;;;25.80;23.10;;;1.90;99.90;;;;;;6180024;23;20413;-81
2021/01/24 01:56:26;;;;;;;25.67;23.07;;;1.90;99.90;;;;;;6216039;23;20427;-81
2021/01/24 01:58:53;;;;;;;27.27;23.73;;;1.90;99.90;;;;;;6179636;23;20429;-81
2021/01/24 02:01:30;;;;;;;26.67;22.60;;;2.00;99.90;;;;;;6179795;23;20446;-80
2021/01/24 02:04:07;;;;;;;26.57;23.90;;;1.90;99.90;;;;;;6180834;23;20405;-80
2021/01/24 02:06:40;;;;;;;29.57;26.67;;;1.90;99.90;;;;;;6179295;23;20421;-80
2021/01/24 02:09:12;;;;;;;27.90;24.10;;;2.00;99.90;;;;;;6178588;23;20429;-81
2021/01/24 02:11:48;;;;;;;30.57;27.40;;;2.00;99.90;;;;;;6178388;23;20474;-81
2021/01/24 02:14:25;;;;;;;30.23;27.23;;;2.00;99.90;;;;;;6178427;23;20439;-81
2021/01/24 02:16:54;;;;;;;30.50;27.20;;;2.00;99.90;;;;;;6178352;23;20437;-81
2021/01/24 02:19:32;;;;;;;29.43;26.23;;;2.00;99.90;;;;;;6215151;23;20420;-81
2021/01/24 02:22:00;;;;;;;30.20;27.20;;;2.00;99.90;;;;;;6178829;23;20411;-81
2021/01/24 02:24:28;;;;;;;29.10;26.20;;;1.90;99.90;;;;;;6215754;23;20404;-81
2021/01/24 02:27:10;;;;;;;29.33;26.37;;;1.90;99.90;;;;;;6214691;23;20402;-80
2021/01/24 02:29:48;;;;;;;31.43;27.20;;;1.90;99.90;;;;;;6214311;23;20412;-80
2021/01/24 02:32:18;;;;;;;28.47;25.30;;;1.90;99.90;;;;;;6178882;23;20438;-80
2021/01/24 02:34:47;;;;;;;28.87;25.83;;;1.90;99.90;;;;;;6214621;23;20384;-80
2021/01/24 02:37:16;;;;;;;27.83;24.67;;;1.90;99.90;;;;;;6177798;23;20432;-81
2021/01/24 02:39:44;;;;;;;29.30;26.30;;;1.90;99.90;;;;;;6179304;23;20422;-81
2021/01/24 02:42:12;;;;;;;29.33;26.43;;;1.90;99.90;;;;;;6178633;23;20737;-79
2021/01/24 02:44:40;;;;;;;27.93;24.90;;;1.90;99.90;;;;;;6179264;23;20423;-80
2021/01/24 02:47:08;;;;;;;25.73;22.93;;;1.90;99.90;;;;;;6178949;23;20412;-81
2021/01/24 02:49:41;;;;;;;28.43;25.60;;;1.90;99.90;;;;;;6179266;23;20435;-81
2021/01/24 02:52:09;;;;;;;30.83;27.63;;;2.00;99.90;;;;;;6215395;23;20393;-81
2021/01/24 02:54:37;;;;;;;27.10;23.27;;;1.90;99.90;;;;;;6180045;23;20408;-81
2021/01/24 02:57:05;;;;;;;29.50;25.80;;;2.00;99.90;;;;;;6175387;23;20445;-81
2021/01/24 02:59:33;;;;;;;28.98;25.98;;;2.00;99.90;;;;;;6176240;23;20453;-80
2021/01/24 03:02:00;;;;;;;29.27;26.20;;;2.10;99.90;;;;;;6214371;23;20191;-81
2021/01/24 03:04:27;;;;;;;28.40;25.60;;;2.10;99.90;;;;;;6178288;23;20419;-81
2021/01/24 03:06:55;;;;;;;27.30;24.00;;;2.10;99.90;;;;;;6177701;23;20442;-80
2021/01/24 03:09:23;;;;;;;30.10;26.77;;;2.10;99.90;;;;;;6178408;23;20198;-80
2021/01/24 03:11:52;;;;;;;29.30;26.10;;;2.10;99.90;;;;;;6178374;23;20427;-81
2021/01/24 03:14:22;;;;;;;30.07;26.97;;;2.00;99.90;;;;;;6178780;23;20408;-81
2021/01/24 03:16:51;;;;;;;31.17;28.00;;;2.00;99.90;;;;;;6178667;23;20435;-81
2021/01/24 03:19:22;;;;;;;32.37;28.97;;;2.00;99.90;;;;;;6201282;23;20439;-81
2021/01/24 03:21:53;;;;;;;30.20;26.93;;;1.90;99.90;;;;;;6176960;23;20412;-81
2021/01/24 03:24:23;;;;;;;31.83;28.63;;;1.90;99.90;;;;;;6176662;23;20416;-81
2021/01/24 03:26:52;;;;;;;29.57;26.60;;;1.80;99.90;;;;;;6213890;23;20414;-81
2021/01/24 03:29:20;;;;;;;31.00;27.70;;;1.90;99.90;;;;;;6177717;23;20469;-81
2021/01/24 03:31:48;;;;;;;26.47;23.67;;;1.90;99.90;;;;;;6176400;23;20439;-81
2021/01/24 03:34:19;;;;;;;30.50;27.30;;;1.90;99.90;;;;;;6176119;23;20422;-81
2021/01/24 03:36:48;;;;;;;28.63;25.00;;;1.90;99.90;;;;;;6176231;23;20442;-81
2021/01/24 03:39:16;;;;;;;29.63;24.90;;;1.90;99.90;;;;;;6175587;23;20787;-80
2021/01/24 03:41:45;;;;;;;31.73;28.63;;;1.90;99.90;;;;;;6175536;23;20420;-81
2021/01/24 03:44:12;;;;;;;27.87;25.03;;;1.80;99.90;;;;;;6175918;23;20415;-81
2021/01/24 03:46:40;;;;;;;28.10;25.20;;;1.80;99.90;;;;;;6173678;23;20409;-80
2021/01/24 03:49:08;;;;;;;29.33;24.70;;;1.80;99.90;;;;;;6173948;23;20466;-81
2021/01/24 03:51:43;;;;;;;27.67;24.77;;;1.80;99.90;;;;;;6208114;23;20936;-81
2021/01/24 03:54:11;;;;;;;26.77;22.73;;;1.80;99.90;;;;;;6170538;23;20761;-81
2021/01/24 03:56:38;;;;;;;26.60;24.00;;;1.90;99.90;;;;;;6203540;23;20473;-81
2021/01/24 03:59:06;;;;;;;27.83;25.10;;;1.80;99.90;;;;;;6174212;23;20468;-80
2021/01/24 04:01:35;;;;;;;25.97;22.03;;;1.80;99.90;;;;;;6176810;23;20411;-81
2021/01/24 04:04:05;;;;;;;28.83;25.83;;;1.90;99.90;;;;;;6177693;23;20744;-80
2021/01/24 04:06:32;;;;;;;26.43;23.53;;;1.80;99.90;;;;;;6177683;23;20759;-80
2021/01/24 04:08:59;;;;;;;26.70;24.07;;;1.80;99.90;;;;;;6214324;23;20411;-80
2021/01/24 04:11:26;;;;;;;27.80;23.80;;;1.80;99.90;;;;;;6213933;23;20402;-81
2021/01/24 04:13:54;;;;;;;27.73;25.03;;;1.80;99.90;;;;;;6178647;23;20410;-81
2021/01/24 04:16:22;;;;;;;29.13;26.13;;;1.80;99.90;;;;;;6178298;23;20447;-81
2021/01/24 04:18:54;;;;;;;27.83;24.83;;;1.80;99.90;;;;;;6178608;23;20447;-81
2021/01/24 04:21:21;;;;;;;29.27;26.17;;;1.80;99.90;;;;;;6178271;23;20428;-81
2021/01/24 04:23:49;;;;;;;29.80;25.97;;;1.70;99.90;;;;;;6178590;23;20411;-80
2021/01/24 04:26:16;;;;;;;28.03;25.20;;;1.70;99.90;;;;;;6215073;23;20420;-80
2021/01/24 04:28:43;;;;;;;27.33;24.43;;;1.70;99.90;;;;;;6177214;23;20462;-81
2021/01/24 04:31:11;;;;;;;27.87;24.90;;;1.70;99.90;;;;;;6177997;23;20420;-81
2021/01/24 04:33:41;;;;;;;24.73;22.13;;;1.70;99.90;;;;;;6215041;23;20423;-81
2021/01/24 04:36:10;;;;;;;26.47;23.30;;;1.70;99.90;;;;;;6178955;23;20439;-81
2021/01/24 04:38:37;;;;;;;28.33;25.43;;;1.60;99.90;;;;;;6172773;23;20466;-81
2021/01/24 04:41:06;;;;;;;33.20;29.70;;;1.60;99.90;;;;;;6176124;23;20422;-81
2021/01/24 04:43:33;;;;;;;28.80;25.53;;;1.60;99.90;;;;;;6176051;23;20740;-80
2021/01/24 04:46:01;;;;;;;28.80;26.10;;;1.60;99.90;;;;;;6177431;23;20415;-81
2021/01/24 04:48:29;;;;;;;31.17;26.03;;;1.60;99.90;;;;;;6177995;23;20426;-81
2021/01/24 04:50:58;;;;;;;29.77;26.77;;;1.60;99.90;;;;;;6178180;23;20429;-81
2021/01/24 04:53:25;;;;;;;30.30;27.33;;;1.50;99.90;;;;;;6177345;23;20490;-81
2021/01/24 04:55:53;;;;;;;29.60;25.20;;;1.50;99.90;;;;;;6177578;23;20443;-80
2021/01/24 04:58:22;;;;;;;30.03;26.80;;;1.50;99.90;;;;;;6214104;23;20424;-81
2021/01/24 05:00:49;;;;;;;26.90;23.60;;;1.50;99.90;;;;;;6177827;23;20407;-81
2021/01/24 05:03:16;;;;;;;27.43;24.50;;;1.40;99.90;;;;;;6177712;23;20416;-81
2021/01/24 05:05:44;;;;;;;27.80;24.93;;;1.40;99.90;;;;;;6178651;23;20435;-81
2021/01/24 05:08:12;;;;;;;25.37;22.70;;;1.40;99.90;;;;;;6215521;23;20403;-80
2021/01/24 05:10:39;;;;;;;27.60;24.30;;;1.30;99.90;;;;;;6179032;23;20887;-80
2021/01/24 05:13:06;;;;;;;27.30;24.40;;;1.30;99.90;;;;;;6176742;23;20413;-80
2021/01/24 05:15:36;;;;;;;25.80;23.10;;;1.40;99.90;;;;;;6177465;23;20411;-80
2021/01/24 05:18:04;;;;;;;29.20;26.00;;;1.30;99.90;;;;;;6177732;23;20418;-80
2021/01/24 05:20:33;;;;;;;28.77;25.10;;;1.20;99.90;;;;;;6177683;23;20442;-80
2021/01/24 05:23:02;;;;;;;27.23;23.83;;;1.20;99.90;;;;;;6177140;23;20440;-81
2021/01/24 05:25:32;;;;;;;27.90;24.07;;;1.20;99.90;;;;;;6213905;23;20392;-81
2021/01/24 05:28:22;;;;;;;28.37;25.43;;;1.10;99.90;;;;;;6214554;23;20407;-81
2021/01/24 05:31:01;;;;;;;28.20;25.10;;;1.10;99.90;;;;;;6215249;23;20384;-80
2021/01/24 05:33:28;;;;;;;27.50;24.60;;;1.10;99.90;;;;;;6179500;23;20403;-81
2021/01/24 05:35:58;;;;;;;32.27;25.40;;;1.10;99.90;;;;;;6179760;23;20431;-80
2021/01/24 05:38:28;;;;;;;28.67;24.87;;;1.10;99.90;;;;;;6179896;23;20420;-81
2021/01/24 05:40:59;;;;;;;33.17;24.80;;;1.00;99.90;;;;;;6177855;23;20482;-80
2021/01/24 05:43:27;;;;;;;28.50;25.13;;;1.00;99.90;;;;;;6179320;23;20407;-80
2021/01/24 05:45:55;;;;;;;28.17;25.17;;;1.00;99.90;;;;;;6178912;23;20523;-81
2021/01/24 05:48:22;;;;;;;27.70;24.70;;;1.00;99.90;;;;;;6179313;23;20458;-80
2021/01/24 05:50:49;;;;;;;25.40;22.70;;;1.00;99.90;;;;;;6179017;23;20423;-80
2021/01/24 05:53:17;;;;;;;26.97;21.50;;;0.90;99.90;;;;;;6178413;23;20414;-80
2021/01/24 05:55:44;;;;;;;29.70;26.27;;;0.90;99.90;;;;;;6178842;23;20419;-81
2021/01/24 05:58:17;;;;;;;27.87;24.37;;;0.90;99.90;;;;;;6178699;23;20416;-81
2021/01/24 06:00:46;;;;;;;27.87;24.20;;;0.90;99.90;;;;;;6179358;23;20443;-80
2021/01/24 06:03:14;;;;;;;27.70;24.80;;;0.80;99.90;;;;;;6178797;23;20410;-80
2021/01/24 06:05:43;;;;;;;30.60;27.40;;;0.80;99.90;;;;;;6179214;23;20416;-81
2021/01/24 06:08:12;;;;;;;30.00;25.97;;;0.80;99.90;;;;;;6180204;23;20447;-80
2021/01/24 06:10:40;;;;;;;31.10;27.80;;;0.80;99.90;;;;;;6179430;23;20415;-81
2021/01/24 06:13:12;;;;;;;28.83;24.93;;;0.80;99.90;;;;;;6181433;23;20452;-81
2021/01/24 06:15:42;;;;;;;27.97;25.17;;;0.80;99.90;;;;;;6174733;23;20412;-81
2021/01/24 06:18:14;;;;;;;29.10;26.17;;;0.80;99.90;;;;;;6177154;23;20439;-81
2021/01/24 06:20:47;;;;;;;28.40;25.60;;;0.80;99.90;;;;;;6177387;23;20412;-81
2021/01/24 06:23:19;;;;;;;30.07;23.03;;;0.80;99.90;;;;;;6213671;23;20372;-80
2021/01/24 06:25:53;;;;;;;29.80;26.63;;;0.80;99.90;;;;;;6212500;23;20403;-81
2021/01/24 06:28:48;;;;;;;30.10;22.43;;;0.80;99.90;;;;;;6212879;23;20383;-80
2021/01/24 06:31:19;;;;;;;29.37;24.90;;;0.80;99.90;;;;;;6175219;23;20423;-80
2021/01/24 06:33:51;;;;;;;26.40;22.07;;;0.70;99.90;;;;;;6209609;23;20395;-80
2021/01/24 06:36:20;;;;;;;28.20;25.20;;;0.70;99.90;;;;;;6170765;23;20432;-81
2021/01/24 06:38:55;;;;;;;28.90;26.00;;;0.70;99.90;;;;;;6167478;23;20497;-81
2021/01/24 06:41:44;;;;;;;30.67;26.97;;;0.70;99.90;;;;;;6218703;23;20384;-80
2021/01/24 06:44:37;;;;;;;33.63;24.00;;;0.70;99.90;;;;;;6216694;23;20399;-80
2021/01/24 06:47:29;;;;;;;33.07;23.97;;;0.70;99.90;;;;;;6180055;23;20412;-81
2021/01/24 06:49:56;;;;;;;29.73;26.73;;;0.70;99.90;;;;;;6215917;23;20456;-80
2021/01/24 06:52:24;;;;;;;28.67;25.77;;;0.70;99.90;;;;;;6176844;23;20744;-80
2021/01/24 06:54:51;;;;;;;31.97;27.27;;;0.60;99.90;;;;;;6178128;23;20415;-80
2021/01/24 06:57:19;;;;;;;28.60;25.00;;;0.60;99.90;;;;;;6214416;23;20431;-81
2021/01/24 06:59:48;;;;;;;28.57;22.47;;;0.70;99.90;;;;;;6179337;23;20415;-81
2021/01/24 07:02:26;;;;;;;26.80;23.93;;;0.60;99.90;;;;;;6178362;23;20447;-81
2021/01/24 07:05:12;;;;;;;24.70;22.00;;;0.70;99.90;;;;;;6178265;23;20438;-81
2021/01/24 07:07:41;;;;;;;26.13;22.60;;;0.60;99.90;;;;;;6204805;23;20422;-81
2021/01/24 07:10:11;;;;;;;27.97;21.73;;;0.60;99.90;;;;;;6179070;23;20428;-81
2021/01/24 07:12:46;;;;;;;28.87;25.77;;;0.60;99.90;;;;;;6215443;23;20443;-81
2021/01/24 07:15:23;;;;;;;30.80;27.70;;;0.60;99.90;;;;;;6178775;23;20407;-81
2021/01/24 07:17:56;;;;;;;31.30;28.13;;;0.60;99.90;;;;;;6177933;23;20814;-81
2021/01/24 07:20:25;;;;;;;31.63;28.43;;;0.60;99.90;;;;;;6179032;23;20434;-81
2021/01/24 07:22:54;;;;;;;29.87;26.67;;;0.60;99.90;;;;;;6177964;23;20412;-81
2021/01/24 07:25:23;;;;;;;30.70;25.70;;;0.70;99.90;;;;;;6177811;23;20411;-82
2021/01/24 07:27:54;;;;;;;31.20;24.70;;;0.60;99.90;;;;;;6177707;23;20883;-81
2021/01/24 07:30:25;;;;;;;29.83;26.73;;;0.60;99.90;;;;;;6177921;23;20435;-81
2021/01/24 07:32:54;;;;;;;31.00;24.43;;;0.60;99.90;;;;;;6178380;23;20412;-81
2021/01/24 07:35:22;;;;;;;28.70;25.60;;;0.60;99.90;;;;;;6178713;23;20918;-81
2021/01/24 07:37:51;;;;;;;30.93;27.67;;;0.60;99.90;;;;;;6178072;23;20451;-81
2021/01/24 07:40:22;;;;;;;35.07;31.50;;;0.60;99.90;;;;;;6178407;23;20442;-81
2021/01/24 07:42:53;;;;;;;32.53;29.13;;;0.70;99.90;;;;;;6216006;23;20397;-81
2021/01/24 07:45:22;;;;;;;31.80;28.43;;;0.60;99.90;;;;;;6177668;23;20407;-81
2021/01/24 07:47:49;;;;;;;33.00;29.50;;;0.60;99.90;;;;;;6178229;23;20837;-81
2021/01/24 07:50:17;;;;;;;30.30;27.00;;;0.60;99.90;;;;;;6215200;23;20412;-81
2021/01/24 07:52:45;;;;;;;34.73;28.10;;;0.60;99.90;;;;;;6178660;23;20443;-81
2021/01/24 07:55:16;;;;;;;31.33;26.33;;;0.70;99.90;;;;;;6176625;23;20443;-81
2021/01/24 07:57:44;;;;;;;31.27;27.73;;;0.60;99.90;;;;;;6177632;23;20439;-81
2021/01/24 08:00:13;;;;;;;32.87;29.47;;;0.60;99.90;;;;;;6178212;23;20431;-81
2021/01/24 08:02:41;;;;;;;33.23;29.77;;;0.60;99.90;;;;;;6177866;23;20419;-81
2021/01/24 08:05:10;;;;;;;28.83;25.40;;;0.70;99.90;;;;;;6178022;23;20411;-81
2021/01/24 08:07:40;;;;;;;35.17;31.43;;;0.70;99.90;;;;;;6177507;23;20456;-81
2021/01/24 08:10:08;;;;;;;39.13;32.53;;;0.70;99.90;;;;;;6213840;23;20423;-81
2021/01/24 08:12:35;;;;;;;38.23;34.23;;;0.70;99.90;;;;;;6178707;23;20474;-81
2021/01/24 08:15:03;;;;;;;36.57;32.80;;;0.70;99.90;;;;;;6213191;23;20400;-81
2021/01/24 08:17:31;;;;;;;34.03;29.53;;;0.70;99.90;;;;;;6212769;23;20428;-81
2021/01/24 08:19:59;;;;;;;34.60;27.83;;;0.70;99.90;;;;;;6177595;23;20435;-81
2021/01/24 08:22:27;;;;;;;32.23;28.70;;;0.60;99.90;;;;;;6175812;23;20416;-81
2021/01/24 08:24:56;;;;;;;30.83;27.43;;;0.70;99.90;;;;;;6172078;23;20434;-81
2021/01/24 08:27:24;;;;;;;36.80;32.43;;;0.70;99.90;;;;;;6178832;23;20435;-81
2021/01/24 08:29:52;;;;;;;32.87;27.93;;;0.70;99.90;;;;;;6179020;23;20435;-81
2021/01/24 08:32:19;;;;;;;36.47;32.50;;;0.70;99.90;;;;;;6215378;23;20795;-81
2021/01/24 08:34:48;;;;;;;33.73;27.13;;;0.70;99.90;;;;;;6176424;23;20420;-81
2021/01/24 08:37:16;;;;;;;38.60;30.70;;;0.70;99.90;;;;;;6176581;23;20447;-81
2021/01/24 08:39:44;;;;;;;39.20;33.60;;;0.80;99.90;;;;;;6207186;23;20519;-81
2021/01/24 08:42:12;;;;;;;39.87;33.17;;;0.80;99.90;;;;;;6173126;23;20434;-81
2021/01/24 08:44:57;;;;;;;37.83;28.27;;;0.80;99.90;;;;;;6164926;23;20396;-81
2021/01/24 08:47:25;;;;;;;39.40;35.00;;;0.90;99.90;;;;;;6164480;23;20494;-81
2021/01/24 08:50:04;;;;;;;37.80;32.43;;;0.90;99.90;;;;;;6164968;23;20482;-81
2021/01/24 08:52:36;;;;;;;46.47;34.43;;;0.90;99.90;;;;;;6164998;23;20477;-81
2021/01/24 08:55:04;;;;;;;41.53;35.33;;;0.90;99.90;;;;;;6202637;23;20403;-81
2021/01/24 08:57:34;;;;;;;40.77;32.07;;;1.00;99.90;;;;;;6166017;23;20438;-81
2021/01/24 09:00:04;;;;;;;42.23;33.77;;;1.00;99.90;;;;;;6199644;23;20443;-81
2021/01/24 09:02:34;;;;;;;46.73;36.20;;;1.00;99.90;;;;;;6163442;23;20875;-81
2021/01/24 09:05:03;;;;;;;47.50;40.13;;;1.10;99.90;;;;;;6165104;23;20747;-81
2021/01/24 09:07:36;;;;;;;46.20;37.77;;;1.10;99.90;;;;;;6166509;23;20431;-81
2021/01/24 09:10:19;;;;;;;46.53;41.07;;;1.10;99.90;;;;;;6165422;23;20434;-81
2021/01/24 09:12:49;;;;;;;52.13;40.50;;;1.20;99.90;;;;;;6166129;23;20502;-81
2021/01/24 09:15:19;;;;;;;50.10;39.47;;;1.20;99.90;;;;;;6167365;23;20416;-81
2021/01/24 09:17:47;;;;;;;50.90;43.07;;;1.30;99.90;;;;;;6166107;23;20446;-81
2021/01/24 09:20:15;;;;;;;49.27;39.67;;;1.30;99.90;;;;;;6165534;23;20443;-82
2021/01/24 09:22:42;;;;;;;48.50;43.37;;;1.30;99.90;;;;;;6168961;23;20411;-81
2021/01/24 09:25:10;;;;;;;54.63;39.03;;;1.40;99.90;;;;;;6170852;23;20447;-81
2021/01/24 09:27:38;;;;;;;53.93;44.73;;;1.40;99.90;;;;;;6176528;23;20408;-82
2021/01/24 09:30:09;;;;;;;50.80;43.60;;;1.40;99.90;;;;;;6211078;23;20419;-81
2021/01/24 09:32:36;;;;;;;53.60;43.40;;;1.50;99.90;;;;;;6175670;23;20462;-81
2021/01/24 09:35:05;;;;;;;56.70;48.20;;;1.50;99.90;;;;;;6170226;23;20425;-81
2021/01/24 09:37:32;;;;;;;55.90;44.83;;;1.50;99.90;;;;;;6167529;23;20439;-81
2021/01/24 09:40:00;;;;;;;54.10;46.40;;;1.60;99.90;;;;;;6168207;23;20432;-82
2021/01/24 09:42:27;;;;;;;53.13;47.40;;;1.60;99.90;;;;;;6165276;23;20395;-81
2021/01/24 09:44:54;;;;;;;56.00;47.20;;;1.60;99.90;;;;;;6165256;23;20426;-82
2021/01/24 09:47:22;;;;;;;54.57;43.43;;;1.70;99.90;;;;;;6201815;23;20380;-81
2021/01/24 09:49:50;;;;;;;59.93;50.50;;;1.70;99.90;;;;;;6165154;23;20972;-81
2021/01/24 09:52:17;;;;;;;60.63;53.42;;;1.70;99.90;;;;;;6164031;23;20415;-81
2021/01/24 09:54:44;;;;;;;60.63;51.13;;;1.80;99.90;;;;;;6165164;23;20227;-82
2021/01/24 09:57:11;;;;;;;60.20;52.73;;;1.80;99.90;;;;;;6165289;23;20478;-81
2021/01/24 09:59:39;;;;;;;65.37;50.33;;;1.80;99.90;;;;;;6201426;23;20415;-81
2021/01/24 10:02:06;;;;;;;57.43;49.00;;;1.90;99.90;;;;;;6201749;23;20407;-82
2021/01/24 10:04:34;;;;;;;61.93;53.33;;;1.80;99.90;;;;;;6165491;23;20415;-81
2021/01/24 10:07:02;;;;;;;63.20;53.00;;;1.90;99.90;;;;;;6201726;23;20403;-81
2021/01/24 10:09:29;;;;;;;66.17;55.00;;;2.00;99.90;;;;;;6164993;23;20772;-81
2021/01/24 10:11:56;;;;;;;62.60;55.80;;;2.10;99.90;;;;;;6164679;23;20987;-81
2021/01/24 10:14:24;;;;;;;61.43;54.73;;;2.10;99.90;;;;;;6165919;23;20723;-81
2021/01/24 10:16:51;;;;;;;61.07;54.00;;;2.10;99.90;;;;;;6164636;23;20440;-81
2021/01/24 10:19:19;;;;;;;59.87;52.70;;;2.20;99.90;;;;;;6165666;23;20474;-81
2021/01/24 10:21:47;;;;;;;59.83;53.40;;;2.20;99.90;;;;;;6165047;23;20902;-81
2021/01/24 10:24:14;;;;;;;60.13;52.77;;;2.20;99.90;;;;;;6166006;23;20410;-81
2021/01/24 10:26:41;;;;;;;56.10;49.97;;;2.30;99.90;;;;;;6201648;23;20451;-81
2021/01/24 10:29:08;;;;;;;51.67;46.40;;;2.30;99.90;;;;;;6165271;23;20520;-81
2021/01/24 10:31:36;;;;;;;55.30;49.30;;;2.40;99.90;;;;;;6165188;23;20447;-81
2021/01/24 10:34:03;;;;;;;52.57;46.93;;;2.40;99.90;;;;;;6165335;23;20434;-81
2021/01/24 10:36:30;;;;;;;48.53;43.40;;;2.50;99.90;;;;;;6165428;23;20413;-81
2021/01/24 10:38:58;;;;;;;46.80;41.77;;;2.50;99.90;;;;;;6164926;23;20476;-82
2021/01/24 10:41:26;;;;;;;45.23;40.40;;;2.60;99.90;;;;;;6165477;23;20472;-81
2021/01/24 10:43:53;;;;;;;40.23;36.03;;;2.60;99.90;;;;;;6164404;23;20404;-81
2021/01/24 10:46:32;;;;;;;41.43;37.03;;;2.70;99.90;;;;;;6201120;23;20394;-81
2021/01/24 10:49:01;;;;;;;37.77;33.70;;;2.70;99.90;;;;;;6164948;23;20431;-81
2021/01/24 10:51:28;;;;;;;37.87;34.00;;;2.70;99.90;;;;;;6201172;23;20441;-81
2021/01/24 10:53:56;;;;;;;37.13;31.77;;;2.80;99.90;;;;;;6164537;23;20407;-81
2021/01/24 10:56:24;;;;;;;36.53;31.23;;;2.80;99.90;;;;;;6165355;23;20487;-81
2021/01/24 10:58:51;;;;;;;36.40;32.50;;;2.90;99.90;;;;;;6190475;23;20442;-81
2021/01/24 11:01:18;;;;;;;36.07;31.70;;;2.90;99.90;;;;;;6201437;23;20387;-81
2021/01/24 11:03:45;;;;;;;33.93;30.30;;;2.90;99.90;;;;;;6164696;23;20871;-81
2021/01/24 11:06:13;;;;;;;33.90;29.13;;;3.00;99.90;;;;;;6165098;23;20425;-81
2021/01/24 11:08:40;;;;;;;35.50;30.90;;;3.00;99.90;;;;;;6201517;23;20412;-81
2021/01/24 11:11:07;;;;;;;32.53;28.23;;;3.00;99.90;;;;;;6165770;23;20408;-82
2021/01/24 11:13:35;;;;;;;30.70;27.27;;;3.10;99.90;;;;;;6164978;23;20416;-81
2021/01/24 11:16:03;;;;;;;30.73;27.53;;;3.10;99.90;;;;;;6165645;23;20418;-82
2021/01/24 11:18:31;;;;;;;31.47;28.10;;;3.10;99.90;;;;;;6166179;23;20536;-81
2021/01/24 11:21:01;;;;;;;31.20;26.83;;;3.10;99.90;;;;;;6166105;23;20461;-81
2021/01/24 11:23:29;;;;;;;29.17;26.17;;;3.20;99.90;;;;;;6164980;23;20741;-81
2021/01/24 11:25:56;;;;;;;31.20;26.70;;;3.20;99.90;;;;;;6164915;23;20435;-81
2021/01/24 11:28:23;;;;;;;30.77;27.57;;;3.30;99.90;;;;;;6163523;23;20419;-81
2021/01/24 11:30:52;;;;;;;32.93;28.33;;;3.30;99.90;;;;;;6165212;23;20402;-81
2021/01/24 11:33:19;;;;;;;31.73;28.53;;;3.30;99.90;;;;;;6164287;23;20478;-81
2021/01/24 11:35:46;;;;;;;30.97;27.33;;;3.40;99.90;;;;;;6165058;23;20445;-81
2021/01/24 11:38:13;;;;;;;27.57;24.67;;;3.50;99.90;;;;;;6164904;23;20443;-81
2021/01/24 11:40:40;;;;;;;27.53;24.53;;;3.40;99.90;;;;;;6164661;23;20415;-81
2021/01/24 11:43:08;;;;;;;26.50;23.80;;;3.50;99.90;;;;;;6201179;23;20388;-82
2021/01/24 11:45:35;;;;;;;26.27;23.67;;;3.50;99.90;;;;;;6199954;23;20709;-81
2021/01/24 11:48:04;;;;;;;29.27;25.50;;;3.60;99.90;;;;;;6200756;23;20438;-82
2021/01/24 11:50:31;;;;;;;30.80;27.50;;;3.60;99.90;;;;;;6164343;23;20438;-81
2021/01/24 11:53:01;;;;;;;28.70;25.80;;;3.60;99.90;;;;;;6164315;23;20419;-81
2021/01/24 11:55:28;;;;;;;28.17;25.17;;;3.70;99.90;;;;;;6164471;23;20510;-81
2021/01/24 11:57:56;;;;;;;25.93;23.20;;;3.70;99.90;;;;;;6164203;23;20434;-81
2021/01/24 12:00:23;;;;;;;25.97;21.77;;;3.70;99.90;;;;;;6164601;23;20434;-81
2021/01/24 12:02:50;;;;;;;24.90;22.07;;;3.70;99.90;;;;;;6200715;23;20388;-81
2021/01/24 12:05:19;;;;;;;23.67;21.23;;;3.70;99.90;;;;;;6164504;23;20421;-81
2021/01/24 12:07:46;;;;;;;22.80;20.43;;;3.70;99.90;;;;;;6164805;23;20427;-82
2021/01/24 12:10:13;;;;;;;20.30;18.30;;;3.70;99.90;;;;;;6164298;23;20435;-82
2021/01/24 12:12:40;;;;;;;19.00;17.10;;;3.70;99.90;;;;;;6164927;23;20784;-81
2021/01/24 12:15:09;;;;;;;20.27;18.23;;;3.80;99.90;;;;;;6164322;23;20408;-81
2021/01/24 12:17:37;;;;;;;19.23;17.07;;;3.80;99.90;;;;;;6164177;23;20445;-82
2021/01/24 12:20:05;;;;;;;19.23;17.23;;;3.80;99.90;;;;;;6201370;23;20423;-82
2021/01/24 12:22:34;;;;;;;21.47;19.37;;;3.80;99.90;;;;;;6201910;23;20825;-82
2021/01/24 12:25:01;;;;;;;20.10;18.03;;;3.90;99.90;;;;;;6201338;23;20403;-81
2021/01/24 12:27:29;;;;;;;20.80;18.77;;;3.90;99.90;;;;;;6165662;23;20453;-81
2021/01/24 12:29:56;;;;;;;21.90;19.73;;;3.90;99.90;;;;;;6164848;23;20499;-81
2021/01/24 12:32:24;;;;;;;20.80;18.70;;;4.00;99.90;;;;;;6165430;23;20863;-81
2021/01/24 12:34:51;;;;;;;23.73;21.40;;;4.00;99.90;;;;;;6165515;23;20962;-82
2021/01/24 12:37:18;;;;;;;23.10;21.00;;;4.00;99.90;;;;;;6164256;23;20431;-82
2021/01/24 12:39:46;;;;;;;24.10;21.47;;;4.10;99.90;;;;;;6166515;23;20485;-81
2021/01/24 12:42:13;;;;;;;24.33;21.90;;;4.20;99.90;;;;;;6167193;23;20426;-81
2021/01/24 12:44:41;;;;;;;23.53;21.23;;;4.20;99.90;;;;;;6167191;23;20439;-81